Time;durP1;ratioP1;P1;durP2;ratioP2;P2;SDS_P1;SDS_P2;PMS_P1;PMS_P2;Temp;Humidity;BMP_temperature;BMP_pressure;BME280_temperature;BME280_humidity;BME280_pressure;Samples;Min_cycle;Max_cycle;Signal;HPM_P1;HPM_P2
2022/04/21 00:00:41;;;;;;;18.70;5.40;;;;;;;38.66;44.27;100976.22;5070492;28;20887;-71
2022/04/21 00:03:08;;;;;;;14.90;5.20;;;;;;;38.79;44.18;100984.63;5070609;28;20417;-71
2022/04/21 00:05:35;;;;;;;12.77;4.47;;;;;;;38.77;43.80;100970.59;5071793;28;20394;-71
2022/04/21 00:08:01;;;;;;;10.03;4.40;;;;;;;38.76;43.69;100967.06;5071571;28;20490;-69
2022/04/21 00:10:28;;;;;;;10.43;4.23;;;;;;;38.65;44.23;100973.81;5070333;28;20421;-72
2022/04/21 00:12:55;;;;;;;14.40;5.53;;;;;;;38.57;44.31;100971.88;5070585;28;20401;-70
2022/04/21 00:15:22;;;;;;;15.97;4.90;;;;;;;38.59;44.52;100958.78;5071743;28;20437;-71
2022/04/21 00:17:48;;;;;;;16.97;5.87;;;;;;;38.58;44.40;100952.56;5070436;28;20422;-71
2022/04/21 00:20:14;;;;;;;23.30;7.43;;;;;;;38.45;44.63;100953.44;5070250;28;20891;-70
2022/04/21 00:25:28;;;;;;;16.63;5.07;;;;;;;38.72;43.83;100938.19;5071681;28;20447;-72
2022/04/21 00:27:57;;;;;;;13.20;5.87;;;;;;;38.43;44.22;100937.50;5070112;28;20466;-70
2022/04/21 00:30:24;;;;;;;12.23;6.30;;;;;;;38.40;44.73;100940.00;5070408;28;20402;-69
2022/04/21 00:32:50;;;;;;;13.03;6.20;;;;;;;38.62;44.28;100926.47;5070324;28;20406;-70
2022/04/21 00:35:17;;;;;;;10.57;4.80;;;;;;;38.68;43.81;100925.22;5070116;28;20422;-71
2022/04/21 00:37:55;;;;;;;15.07;5.67;;;;;;;38.64;44.33;100913.38;5070308;28;20937;-70
2022/04/21 00:40:23;;;;;;;16.50;7.30;;;;;;;38.65;44.41;100914.97;5071510;28;20398;-70
2022/04/21 00:42:49;;;;;;;17.80;5.37;;;;;;;38.59;44.45;100912.72;5070273;28;20422;-70
2022/04/21 00:45:16;;;;;;;20.83;6.80;;;;;;;38.61;44.10;100907.78;5069921;28;20441;-70
2022/04/21 00:47:45;;;;;;;14.73;6.43;;;;;;;38.53;44.48;100917.47;5070216;28;20421;-70
2022/04/21 00:50:22;;;;;;;16.97;6.57;;;;;;;38.49;44.66;100908.38;5070160;28;20925;-71
2022/04/21 00:52:50;;;;;;;13.50;5.60;;;;;;;38.63;44.36;100911.78;5071692;28;20402;-72
2022/04/21 00:55:16;;;;;;;16.70;6.80;;;;;;;38.77;43.81;100905.50;5070083;28;20910;-70
2022/04/21 00:57:45;;;;;;;15.90;8.23;;;;;;;38.71;43.58;100918.38;5070008;28;20451;-70
2022/04/21 01:00:12;;;;;;;11.17;5.53;;;;;;;38.81;44.02;100911.94;5053465;28;20824;-70
2022/04/21 01:02:54;;;;;;;26.80;6.13;;;;;;;38.80;43.87;100924.69;5069971;28;20421;-70
2022/04/21 01:05:33;;;;;;;12.90;5.37;;;;;;;38.89;43.46;100927.44;5055471;28;20420;-70
2022/04/21 01:08:03;;;;;;;15.73;5.17;;;;;;;39.02;43.08;100948.22;5070045;28;20418;-70
2022/04/21 01:10:32;;;;;;;7.37;4.60;;;;;;;39.08;42.89;100960.56;5070037;28;20914;-70
2022/04/21 01:12:59;;;;;;;37.20;6.63;;;;;;;39.15;42.75;100960.91;5053516;28;20551;-70
2022/04/21 01:15:25;;;;;;;11.03;4.40;;;;;;;38.93;43.09;100978.03;5069895;28;21032;-71
2022/04/21 01:17:55;;;;;;;12.70;5.90;;;;;;;36.99;41.93;100992.03;5053211;28;20406;-71
2022/04/21 01:20:25;;;;;;;12.53;6.23;;;;;;;36.40;41.39;100989.97;5069974;28;20414;-71
2022/04/21 01:22:52;;;;;;;14.80;6.30;;;;;;;35.84;42.82;100991.44;5073335;28;20417;-71
2022/04/21 01:25:20;;;;;;;15.30;6.13;;;;;;;36.02;42.79;100998.00;5073434;28;20421;-71
2022/04/21 01:27:48;;;;;;;9.63;5.07;;;;;;;35.78;43.20;100993.41;5073224;28;20474;-71
2022/04/21 01:30:14;;;;;;;19.67;5.37;;;;;;;35.29;44.17;100974.75;5073253;28;20453;-72
2022/04/21 01:32:42;;;;;;;12.60;5.60;;;;;;;35.09;44.85;100964.19;5056589;28;20414;-71
2022/04/21 01:35:09;;;;;;;14.10;4.50;;;;;;;33.75;48.27;100947.16;5074406;28;20409;-71
2022/04/21 01:43:06;;;;;;;10.67;5.80;;;;;;;35.55;44.19;100921.38;5074709;28;20393;-70
2022/04/21 01:45:32;;;;;;;17.37;7.50;;;;;;;35.56;44.65;100920.28;5072876;28;20433;-71
2022/04/21 01:47:58;;;;;;;17.90;5.73;;;;;;;35.79;44.20;100910.56;5072968;28;20884;-71
2022/04/21 01:50:25;;;;;;;15.13;5.03;;;;;;;36.17;44.07;100910.59;5072878;28;20998;-71
2022/04/21 01:52:52;;;;;;;26.57;6.77;;;;;;;35.26;46.15;100913.31;5072926;28;20422;-70
2022/04/21 01:55:18;;;;;;;10.77;4.43;;;;;;;35.47;45.60;100903.13;5072762;28;20444;-69
2022/04/21 01:57:45;;;;;;;13.83;6.93;;;;;;;35.74;45.77;100886.34;5074006;28;20940;-70
2022/04/21 02:00:12;;;;;;;24.90;6.30;;;;;;;35.51;46.67;100858.28;5073074;28;20418;-70
2022/04/21 02:02:38;;;;;;;15.33;8.00;;;;;;;35.89;45.82;100847.53;5072637;28;20448;-71
2022/04/21 02:05:04;;;;;;;14.30;6.23;;;;;;;36.40;45.19;100844.91;5072586;28;20426;-71
2022/04/21 02:07:30;;;;;;;9.57;5.87;;;;;;;36.21;45.26;100842.19;5072573;28;20479;-71
2022/04/21 02:09:56;;;;;;;13.30;6.20;;;;;;;36.04;45.76;100840.03;5072377;28;20422;-70
2022/04/21 02:12:28;;;;;;;19.57;6.20;;;;;;;36.18;46.02;100826.59;5072597;28;20501;-69
2022/04/21 02:14:54;;;;;;;17.70;5.47;;;;;;;36.09;45.94;100814.03;5072408;28;20429;-70
2022/04/21 02:17:20;;;;;;;18.60;5.40;;;;;;;36.40;45.69;100809.78;5072330;28;20457;-70
2022/04/21 02:19:47;;;;;;;13.13;5.27;;;;;;;36.19;45.86;100803.09;5072387;28;20432;-71
2022/04/21 02:22:13;;;;;;;12.20;4.77;;;;;;;36.07;46.13;100792.75;5072292;28;20507;-71
2022/04/21 02:24:40;;;;;;;10.13;4.40;;;;;;;35.74;47.17;100781.88;5072268;28;20543;-70
2022/04/21 02:27:06;;;;;;;9.80;4.93;;;;;;;35.72;47.22;100761.66;5071944;28;20476;-69
2022/04/21 02:29:32;;;;;;;9.13;4.93;;;;;;;36.31;46.19;100758.31;5073463;28;20414;-70
2022/04/21 02:32:01;;;;;;;11.00;4.07;;;;;;;36.77;44.98;100760.19;5072983;28;20420;-70
2022/04/21 02:34:29;;;;;;;12.73;5.63;;;;;;;36.91;44.50;100770.22;5072374;28;20544;-70
2022/04/21 02:36:55;;;;;;;13.73;5.47;;;;;;;36.65;45.56;100780.69;5055228;28;20480;-70
2022/04/21 02:39:21;;;;;;;13.00;5.77;;;;;;;36.29;46.19;100784.81;5071928;28;20495;-70
2022/04/21 02:41:47;;;;;;;13.43;5.40;;;;;;;36.12;47.02;100791.88;5071933;28;20430;-70
2022/04/21 02:44:13;;;;;;;9.90;5.00;;;;;;;36.51;46.25;100799.59;5055481;28;20530;-71
2022/04/21 02:46:39;;;;;;;13.17;6.13;;;;;;;36.38;46.84;100798.44;5071984;28;20779;-71
2022/04/21 02:49:06;;;;;;;16.20;4.30;;;;;;;36.86;45.95;100801.63;5071642;28;20476;-70
2022/04/21 02:51:33;;;;;;;7.97;4.50;;;;;;;37.21;44.85;100802.06;5071460;28;20510;-70
2022/04/21 02:59:29;;;;;;;12.23;5.07;;;;;;;36.61;46.17;100802.13;5072760;28;20524;-72
2022/04/21 03:01:55;;;;;;;20.50;10.20;;;;;;;36.04;47.47;100801.44;5071461;28;20782;-71
2022/04/21 03:04:21;;;;;;;20.23;13.20;;;;;;;36.41;46.71;100802.50;5072793;28;20398;-71
2022/04/21 03:06:47;;;;;;;13.87;9.07;;;;;;;35.90;48.34;100812.13;5071556;28;20441;-71
2022/04/21 03:09:14;;;;;;;14.20;7.60;;;;;;;36.17;47.62;100813.38;5071470;28;20987;-70
2022/04/21 03:11:40;;;;;;;9.57;6.03;;;;;;;35.81;48.37;100813.91;5072517;28;20460;-70
2022/04/21 03:14:06;;;;;;;7.23;4.97;;;;;;;35.90;48.72;100819.44;5071219;28;20934;-71
2022/04/21 03:16:32;;;;;;;9.77;5.30;;;;;;;36.62;47.39;100822.63;5071075;28;20481;-71
2022/04/21 03:18:58;;;;;;;7.80;4.13;;;;;;;36.68;46.97;100832.25;5054494;28;20421;-71
2022/04/21 03:24:21;;;;;;;9.40;6.13;;;;;;;36.88;45.70;100831.09;5072369;28;20401;-70
2022/04/21 03:26:52;;;;;;;12.10;6.40;;;;;;;37.12;45.33;100825.50;5070989;28;20469;-70
2022/04/21 03:29:19;;;;;;;15.57;7.00;;;;;;;36.37;46.84;100823.06;5070863;28;20531;-69
2022/04/21 03:31:45;;;;;;;16.67;9.33;;;;;;;36.66;46.76;100818.25;5054459;28;20461;-69
2022/04/21 03:34:13;;;;;;;9.73;6.97;;;;;;;36.53;46.46;100822.53;5070867;28;20528;-70
2022/04/21 03:36:49;;;;;;;12.10;6.77;;;;;;;36.17;47.46;100824.19;5070873;28;20834;-70
2022/04/21 03:39:18;;;;;;;12.43;6.03;;;;;;;35.81;47.89;100827.41;5072408;28;20501;-70
2022/04/21 03:41:44;;;;;;;10.70;7.17;;;;;;;35.33;49.45;100824.78;5072095;28;20551;-71
2022/04/21 03:44:11;;;;;;;9.93;4.43;;;;;;;35.33;49.26;100822.06;5069967;28;20472;-71
2022/04/21 03:46:38;;;;;;;10.20;5.83;;;;;;;35.49;48.79;100837.00;5070701;28;20505;-71
2022/04/21 03:49:05;;;;;;;15.13;8.97;;;;;;;35.00;49.43;100827.31;5070648;28;20529;-71
2022/04/21 03:51:31;;;;;;;9.30;5.90;;;;;;;35.33;48.71;100840.16;5070690;28;20445;-69
2022/04/21 03:53:58;;;;;;;9.23;6.13;;;;;;;35.18;49.17;100846.53;5054110;28;20457;-69
2022/04/21 03:56:24;;;;;;;10.03;6.80;;;;;;;34.38;50.76;100855.88;5070776;28;20449;-71
2022/04/21 03:58:50;;;;;;;9.57;5.73;;;;;;;34.48;50.61;100855.00;5053824;28;20456;-71
2022/04/21 04:01:17;;;;;;;16.57;5.93;;;;;;;34.35;51.09;100864.50;5070222;28;20426;-70
2022/04/21 04:03:43;;;;;;;21.97;6.87;;;;;;;34.57;50.53;100861.41;5070565;28;20429;-69
2022/04/21 04:11:38;;;;;;;10.60;5.10;;;;;;;34.23;50.57;100872.13;5071717;28;20506;-71
2022/04/21 04:14:07;;;;;;;11.53;5.20;;;;;;;34.48;49.67;100879.25;5070450;28;20418;-71
2022/04/21 04:16:34;;;;;;;13.60;6.43;;;;;;;33.91;49.97;100878.78;5070445;28;20958;-71
2022/04/21 04:19:03;;;;;;;9.63;3.90;;;;;;;34.19;48.86;100879.13;5070378;28;20421;-70
2022/04/21 04:21:30;;;;;;;8.97;5.23;;;;;;;34.32;48.51;100880.44;5037967;28;20422;-70
2022/04/21 04:24:00;;;;;;;15.27;6.40;;;;;;;34.04;48.81;100879.25;5071768;28;20883;-71
2022/04/21 04:26:27;;;;;;;8.90;4.23;;;;;;;34.22;48.22;100881.28;5070245;28;20852;-70
2022/04/21 04:28:53;;;;;;;12.90;6.83;;;;;;;34.35;47.78;100877.16;5070208;28;20972;-70
2022/04/21 04:31:19;;;;;;;8.90;4.67;;;;;;;34.33;47.73;100874.75;5070256;28;20440;-70
2022/04/21 04:33:45;;;;;;;13.13;5.83;;;;;;;34.28;48.18;100864.00;5070244;28;20826;-71
2022/04/21 04:36:13;;;;;;;8.23;5.70;;;;;;;34.61;47.70;100867.00;5071539;28;20445;-70
2022/04/21 04:38:40;;;;;;;17.47;8.07;;;;;;;34.32;47.80;100869.66;5070159;28;20831;-69
2022/04/21 04:43:51;;;;;;;8.50;5.57;;;;;;;34.61;47.59;100842.75;5071567;28;20441;-71
2022/04/21 04:46:35;;;;;;;10.03;4.83;;;;;;;34.88;47.32;100834.16;5071562;28;20398;-71
2022/04/21 04:49:04;;;;;;;10.17;4.67;;;;;;;34.73;47.70;100835.09;5070084;28;20453;-71
2022/04/21 04:51:31;;;;;;;9.43;5.07;;;;;;;34.85;47.06;100835.53;5070134;28;20414;-71
2022/04/21 04:53:57;;;;;;;11.73;4.77;;;;;;;35.20;46.35;100836.25;5070002;28;20445;-69
2022/04/21 04:56:24;;;;;;;12.97;4.53;;;;;;;34.90;46.70;100838.16;5073386;28;21003;-69
2022/04/21 04:58:53;;;;;;;8.43;3.90;;;;;;;34.58;47.21;100821.78;5073654;28;20975;-71
2022/04/21 05:01:32;;;;;;;8.37;3.73;;;;;;;34.87;46.37;100833.38;5073863;28;20421;-70
2022/04/21 05:04:06;;;;;;;13.40;5.83;;;;;;;34.86;46.22;100825.53;5057478;28;20428;-69
2022/04/21 05:06:46;;;;;;;12.83;7.53;;;;;;;34.89;46.34;100843.84;5073761;28;20426;-70
2022/04/21 05:09:14;;;;;;;9.20;4.70;;;;;;;35.27;45.64;100831.31;5073690;28;20440;-70
2022/04/21 05:11:42;;;;;;;10.73;5.10;;;;;;;35.58;44.54;100836.34;5074995;28;20497;-70
2022/04/21 05:14:09;;;;;;;8.33;5.33;;;;;;;35.26;44.72;100827.03;5074686;28;20461;-70
2022/04/21 05:16:37;;;;;;;9.93;4.47;;;;;;;35.29;45.08;100818.34;5073489;28;20471;-69
2022/04/21 05:19:10;;;;;;;13.30;6.60;;;;;;;34.90;45.38;100816.59;5073444;28;20426;-69
2022/04/21 05:21:38;;;;;;;8.90;5.40;;;;;;;35.18;44.84;100820.38;5073369;28;20449;-71
2022/04/21 05:24:05;;;;;;;9.70;6.30;;;;;;;34.98;45.43;100810.59;5073393;28;20433;-70
2022/04/21 05:26:32;;;;;;;18.33;5.50;;;;;;;35.53;43.71;100819.13;5074558;28;20439;-70
2022/04/21 05:29:00;;;;;;;15.83;6.83;;;;;;;35.33;44.75;100819.38;5056535;28;20868;-71
2022/04/21 05:31:27;;;;;;;13.23;7.10;;;;;;;34.51;46.48;100818.63;5085377;22;20540;-71
2022/04/21 05:33:54;;;;;;;9.23;5.20;;;;;;;34.78;46.31;100824.28;5042556;28;20431;-70
2022/04/21 05:36:21;;;;;;;8.50;5.30;;;;;;;34.86;46.12;100828.22;5034447;28;20447;-70
2022/04/21 05:38:49;;;;;;;11.23;6.73;;;;;;;34.87;45.74;100838.75;5016603;28;20542;-69
2022/04/21 05:41:17;;;;;;;15.43;5.77;;;;;;;35.05;45.62;100853.44;5016974;28;20415;-70
2022/04/21 05:43:45;;;;;;;12.30;6.23;;;;;;;35.17;45.27;100863.78;5034166;28;20443;-71
2022/04/21 05:46:13;;;;;;;14.00;6.77;;;;;;;35.47;44.70;100895.03;5034408;28;20847;-72
2022/04/21 05:48:41;;;;;;;9.57;5.33;;;;;;;35.13;45.58;100895.13;5016741;28;20436;-69
2022/04/21 05:51:09;;;;;;;11.07;5.60;;;;;;;35.25;45.48;100903.63;5000251;28;20882;-71
2022/04/21 05:53:38;;;;;;;14.27;8.17;;;;;;;35.47;44.41;100917.41;5032878;28;20419;-71
2022/04/21 05:56:05;;;;;;;11.30;7.30;;;;;;;35.23;44.46;100925.47;5016440;28;20451;-70
2022/04/21 05:58:32;;;;;;;16.07;5.83;;;;;;;34.91;45.29;100925.22;5016407;28;20451;-71
2022/04/21 06:01:00;;;;;;;11.47;6.73;;;;;;;35.34;44.54;100936.94;5016491;28;20423;-73
2022/04/21 06:03:27;;;;;;;8.97;5.60;;;;;;;35.38;44.45;100929.91;5038406;28;20870;-71
2022/04/21 06:05:53;;;;;;;11.77;8.70;;;;;;;35.68;43.67;100938.78;5042315;28;20451;-73
2022/04/21 06:08:19;;;;;;;14.17;6.47;;;;;;;35.14;44.76;100946.06;5040697;28;20411;-72
2022/04/21 06:10:46;;;;;;;15.67;6.50;;;;;;;35.03;45.38;100943.75;5043925;28;20415;-71
2022/04/21 06:13:15;;;;;;;11.77;7.50;;;;;;;35.08;44.88;100941.81;5044636;28;20474;-69
2022/04/21 06:15:42;;;;;;;20.50;9.70;;;;;;;35.04;45.50;100927.28;5027199;28;21147;-69
2022/04/21 06:18:09;;;;;;;11.47;7.27;;;;;;;34.74;45.65;100912.16;5038247;28;20427;-70
2022/04/21 06:20:35;;;;;;;14.10;6.80;;;;;;;34.27;46.69;100935.09;5033650;28;20400;-71
2022/04/21 06:23:01;;;;;;;17.53;7.90;;;;;;;34.80;45.77;100943.34;5033718;28;20410;-69
2022/04/21 06:25:27;;;;;;;12.03;7.00;;;;;;;34.84;45.56;100943.59;5033657;28;20412;-69
2022/04/21 06:27:53;;;;;;;13.23;9.50;;;;;;;34.36;46.13;100963.03;5032260;28;20450;-71
2022/04/21 06:30:20;;;;;;;20.20;9.50;;;;;;;34.95;45.34;100970.22;5032222;28;20939;-69
2022/04/21 06:32:46;;;;;;;12.97;7.93;;;;;;;35.15;45.42;100995.41;5032190;28;20424;-71
2022/04/21 06:35:12;;;;;;;10.83;6.97;;;;;;;35.59;44.32;101011.44;5032233;28;20419;-68
2022/04/21 06:37:39;;;;;;;12.50;6.67;;;;;;;35.98;43.59;101034.81;5031992;28;20493;-68
2022/04/21 06:40:06;;;;;;;13.23;6.30;;;;;;;36.31;42.25;101044.63;5015789;28;20930;-70
2022/04/21 06:42:32;;;;;;;11.40;6.37;;;;;;;36.46;42.26;101051.78;5031600;28;20500;-71
2022/04/21 06:50:27;;;;;;;14.63;6.80;;;;;;;36.47;41.90;101052.56;5077399;23;21311;-70
2022/04/21 06:52:53;;;;;;;15.00;9.00;;;;;;;36.46;41.86;101050.94;5069769;28;20429;-71
2022/04/21 06:55:19;;;;;;;11.23;8.00;;;;;;;36.20;41.88;101055.84;5063865;28;20426;-71
2022/04/21 06:57:45;;;;;;;11.07;7.90;;;;;;;36.35;41.66;101039.47;5059780;28;20423;-71
2022/04/21 07:00:12;;;;;;;12.97;7.50;;;;;;;36.49;41.56;101053.88;5062138;28;20799;-68
2022/04/21 07:02:38;;;;;;;17.43;8.90;;;;;;;36.44;41.45;101055.84;5062115;28;20418;-68
2022/04/21 07:05:10;;;;;;;11.33;7.90;;;;;;;36.29;41.27;101056.81;5061700;28;20429;-70
2022/04/21 07:07:36;;;;;;;14.73;7.77;;;;;;;36.33;41.08;101068.63;5061752;28;20800;-71
2022/04/21 07:10:03;;;;;;;14.33;7.50;;;;;;;36.54;41.14;101075.44;5061796;28;20508;-69
2022/04/21 07:12:31;;;;;;;11.97;7.77;;;;;;;36.43;41.01;101076.66;5060831;28;20978;-69
2022/04/21 07:15:01;;;;;;;12.73;9.47;;;;;;;36.52;40.96;101082.19;5059827;28;20449;-69
2022/04/21 07:17:27;;;;;;;16.50;9.50;;;;;;;36.41;41.84;101081.56;5061555;28;20496;-69
2022/04/21 07:19:53;;;;;;;17.57;8.63;;;;;;;36.18;41.95;101068.84;5060125;28;20428;-69
2022/04/21 07:22:20;;;;;;;14.10;11.67;;;;;;;35.98;42.01;101072.59;5053475;28;20892;-71
2022/04/21 07:24:47;;;;;;;15.13;9.30;;;;;;;35.99;42.44;101072.31;5056547;28;21001;-69
2022/04/21 07:27:13;;;;;;;22.40;9.40;;;;;;;36.11;41.65;101085.41;5067125;28;20782;-69
2022/04/21 07:29:40;;;;;;;17.97;7.70;;;;;;;36.15;41.76;101096.41;5051046;28;20915;-71
2022/04/21 07:32:06;;;;;;;22.43;9.80;;;;;;;36.13;41.58;101106.72;5068620;28;20444;-69
2022/04/21 07:34:34;;;;;;;17.57;8.90;;;;;;;36.14;42.28;101111.81;5052471;28;20449;-69
2022/04/21 07:37:00;;;;;;;15.40;9.60;;;;;;;36.03;42.23;101115.72;5055184;28;20540;-68
2022/04/21 07:39:26;;;;;;;20.47;11.87;;;;;;;36.22;42.22;101118.50;5058898;28;20808;-69
2022/04/21 07:41:52;;;;;;;13.47;7.83;;;;;;;36.23;41.76;101122.81;5059170;28;20889;-69
2022/04/21 07:44:39;;;;;;;15.97;8.93;;;;;;;36.40;41.55;101125.03;5057766;28;20435;-69
2022/04/21 07:47:07;;;;;;;14.93;8.63;;;;;;;36.53;41.13;101133.28;5060336;28;20437;-68
2022/04/21 07:49:45;;;;;;;24.13;10.83;;;;;;;36.65;41.41;101126.63;5059001;28;20480;-69
2022/04/21 07:55:16;;;;;;;17.90;10.77;;;;;;;36.79;40.92;101132.94;5051226;28;20389;-69
2022/04/21 07:57:43;;;;;;;28.23;10.70;;;;;;;36.80;40.96;101129.13;5050824;28;20909;-71
2022/04/21 08:00:11;;;;;;;19.80;8.97;;;;;;;36.82;40.66;101132.31;5050663;28;20556;-69
2022/04/21 08:02:39;;;;;;;22.07;8.70;;;;;;;36.84;41.26;101124.75;5059765;28;20884;-68
2022/04/21 08:05:06;;;;;;;17.13;8.60;;;;;;;36.89;41.23;101119.28;5060832;28;20488;-70
2022/04/21 08:07:33;;;;;;;24.57;10.47;;;;;;;36.93;41.13;101124.91;5050299;28;20438;-69
2022/04/21 08:09:59;;;;;;;22.73;11.07;;;;;;;36.89;39.85;101121.97;5069373;28;20465;-69
2022/04/21 08:12:25;;;;;;;18.30;9.93;;;;;;;37.08;39.54;101120.09;5070463;28;20445;-71
2022/04/21 08:14:51;;;;;;;23.83;10.10;;;;;;;37.05;39.84;101119.88;5063146;28;20470;-71
2022/04/21 08:17:17;;;;;;;20.27;7.53;;;;;;;37.12;40.24;101123.00;5050482;28;20504;-70
2022/04/21 08:19:43;;;;;;;14.83;6.90;;;;;;;37.13;39.99;101120.00;5067374;28;20457;-73
2022/04/21 08:22:09;;;;;;;16.13;7.47;;;;;;;37.16;40.46;101115.91;5050836;28;20962;-71
2022/04/21 08:32:49;;;;;;;14.50;5.40;;;;;;;37.06;41.11;101122.28;5055688;28;20398;-72
2022/04/21 08:35:15;;;;;;;9.60;5.20;;;;;;;37.01;40.89;101125.03;5055599;28;20501;-70
2022/04/21 08:37:44;;;;;;;13.30;5.70;;;;;;;37.06;40.74;101122.28;5054195;28;20640;-70
2022/04/21 08:40:10;;;;;;;14.27;5.47;;;;;;;36.96;41.78;101119.75;5038070;28;20526;-70
2022/04/21 08:42:41;;;;;;;14.80;5.10;;;;;;;37.01;41.27;101118.84;5054214;28;20903;-69
2022/04/21 08:45:09;;;;;;;14.30;6.57;;;;;;;37.10;41.62;101108.97;5054184;28;20443;-70
2022/04/21 08:47:39;;;;;;;24.03;7.23;;;;;;;37.08;41.49;101111.97;5053990;28;20954;-71
2022/04/21 08:50:14;;;;;;;14.00;5.20;;;;;;;37.08;40.74;101116.59;5055213;28;20465;-69
2022/04/21 08:52:42;;;;;;;10.37;5.70;;;;;;;37.12;40.41;101114.88;5055274;28;20406;-71
2022/04/21 08:55:10;;;;;;;8.63;4.50;;;;;;;37.17;40.88;101127.53;5055279;28;20414;-71
2022/04/21 08:57:37;;;;;;;9.33;5.40;;;;;;;37.24;40.77;101130.66;5053998;28;20528;-69
2022/04/21 09:00:08;;;;;;;11.83;5.67;;;;;;;37.29;40.53;101123.28;5053909;28;20407;-71
2022/04/21 09:02:41;;;;;;;17.00;6.27;;;;;;;37.32;40.51;101127.28;5037482;28;20564;-69
2022/04/21 09:05:09;;;;;;;7.73;4.80;;;;;;;37.38;40.41;101124.25;5037024;28;20521;-72
2022/04/21 09:07:49;;;;;;;12.03;7.03;;;;;;;37.36;41.13;101128.31;5053669;28;20410;-73
2022/04/21 09:10:17;;;;;;;7.83;4.97;;;;;;;37.39;40.83;101127.75;5053584;28;20417;-73
2022/04/21 09:12:50;;;;;;;9.67;5.63;;;;;;;37.44;40.33;101118.72;5055009;28;20399;-73
2022/04/21 09:15:30;;;;;;;8.00;5.00;;;;;;;37.42;39.81;101127.16;5053560;28;20488;-73
2022/04/21 09:17:59;;;;;;;9.80;5.20;;;;;;;37.42;39.84;101126.34;5053547;28;20445;-72
2022/04/21 09:20:33;;;;;;;15.37;5.57;;;;;;;37.41;39.65;101130.97;5054589;28;20391;-73
2022/04/21 09:23:00;;;;;;;14.23;7.33;;;;;;;37.40;40.63;101137.47;5053447;28;20426;-72
2022/04/21 09:25:42;;;;;;;13.40;9.00;;;;;;;37.38;40.73;101142.34;5054695;28;20497;-72
2022/04/21 09:28:25;;;;;;;15.57;6.10;;;;;;;37.46;40.50;101149.81;5053256;28;20421;-72
2022/04/21 09:30:52;;;;;;;10.70;7.03;;;;;;;37.50;40.55;101148.09;5054629;28;20394;-73
2022/04/21 09:33:32;;;;;;;16.73;7.47;;;;;;;37.40;40.98;101151.00;5054615;28;20399;-72
2022/04/21 09:36:00;;;;;;;12.20;7.50;;;;;;;37.36;41.04;101144.56;5053013;28;20462;-73
2022/04/21 09:38:27;;;;;;;22.67;12.27;;;;;;;37.04;42.16;101154.22;5053258;28;20418;-73
2022/04/21 09:40:54;;;;;;;19.17;13.27;;;;;;;36.98;42.46;101162.69;5052546;28;20426;-73
2022/04/21 09:43:28;;;;;;;26.23;15.90;;;;;;;36.94;42.73;101159.75;5053640;28;20442;-72
2022/04/21 09:46:10;;;;;;;29.33;17.50;;;;;;;36.56;43.02;101167.81;5054316;28;20389;-71
2022/04/21 09:48:36;;;;;;;37.23;19.50;;;;;;;36.53;43.37;101160.28;5054071;28;20398;-73
2022/04/21 09:51:11;;;;;;;22.93;16.90;;;;;;;36.49;43.60;101174.66;5054173;28;20729;-72
2022/04/21 09:53:57;;;;;;;27.70;17.60;;;;;;;36.74;43.01;101168.94;5052872;28;20937;-72
2022/04/21 09:56:33;;;;;;;23.90;15.53;;;;;;;36.60;43.71;101154.53;5054123;28;20487;-72
2022/04/21 09:59:01;;;;;;;18.20;10.80;;;;;;;36.39;44.26;101169.34;5054044;28;20459;-71
2022/04/21 10:01:28;;;;;;;24.40;15.03;;;;;;;36.26;44.32;101160.03;5052803;28;20411;-71
2022/04/21 10:03:56;;;;;;;31.57;17.50;;;;;;;36.30;44.17;101164.56;5052631;28;20438;-71
2022/04/21 10:06:23;;;;;;;29.30;18.03;;;;;;;36.45;44.29;101174.41;5052689;28;20398;-73
2022/04/21 10:08:50;;;;;;;29.80;16.97;;;;;;;36.10;44.79;101158.59;5052605;28;20417;-73
2022/04/21 10:11:27;;;;;;;20.03;13.60;;;;;;;35.95;45.02;101163.06;5052487;28;20497;-73
2022/04/21 10:13:55;;;;;;;22.23;13.60;;;;;;;36.04;45.27;101152.44;5052522;28;20402;-73
2022/04/21 10:16:24;;;;;;;28.03;17.27;;;;;;;36.27;44.35;101150.81;5052320;28;20525;-73
2022/04/21 10:18:54;;;;;;;26.17;19.90;;;;;;;35.93;45.63;101146.34;5053753;28;20390;-73
2022/04/21 10:21:38;;;;;;;26.77;18.57;;;;;;;35.94;45.24;101147.16;5053507;28;20988;-72
2022/04/21 10:24:05;;;;;;;31.90;19.17;;;;;;;36.14;44.81;101151.53;5053670;28;20394;-71
2022/04/21 10:26:36;;;;;;;69.37;41.43;;;;;;;35.67;44.88;101145.75;5052204;28;20416;-72
2022/04/21 10:29:23;;;;;;;82.07;53.50;;;;;;;36.01;44.23;101151.13;5052259;28;20418;-71
2022/04/21 10:32:03;;;;;;;51.27;35.40;;;;;;;36.04;44.46;101150.56;5052057;28;20442;-72
2022/04/21 10:34:34;;;;;;;27.53;20.00;;;;;;;36.02;44.13;101146.50;5052051;28;20464;-71
2022/04/21 10:37:22;;;;;;;20.63;15.27;;;;;;;36.32;44.41;101139.97;5035957;28;20840;-71
2022/04/21 10:40:06;;;;;;;23.73;17.17;;;;;;;36.11;44.13;101133.22;5035345;28;20862;-71
2022/04/21 10:42:57;;;;;;;22.03;13.40;;;;;;;36.00;44.56;101135.19;5053351;28;20387;-73
2022/04/21 10:45:33;;;;;;;30.23;15.37;;;;;;;35.84;45.12;101126.41;5051703;28;20514;-73
2022/04/21 10:48:04;;;;;;;26.60;17.00;;;;;;;36.30;43.94;101128.66;5051957;28;20897;-73
2022/04/21 10:50:32;;;;;;;27.00;17.20;;;;;;;36.44;43.89;101118.78;5052923;28;20486;-71
2022/04/21 10:58:36;;;;;;;21.40;12.23;;;;;;;36.75;43.02;101115.69;5052619;28;20481;-71
2022/04/21 11:01:16;;;;;;;20.23;11.70;;;;;;;36.75;43.21;101112.97;5051671;28;20417;-73
2022/04/21 11:03:44;;;;;;;16.93;10.27;;;;;;;36.45;43.32;101106.88;5051656;28;20930;-71
2022/04/21 11:06:20;;;;;;;18.17;11.90;;;;;;;36.18;43.56;101115.56;5051364;28;20423;-71
2022/04/21 11:08:46;;;;;;;21.43;10.60;;;;;;;36.21;44.35;101109.56;5051396;28;20411;-72
2022/04/21 11:11:13;;;;;;;14.20;11.70;;;;;;;36.42;44.59;101112.06;5034924;28;21033;-73
2022/04/21 11:14:06;;;;;;;14.20;9.60;;;;;;;36.51;44.13;101119.22;5042047;28;20925;-71
2022/04/21 11:16:41;;;;;;;21.43;11.87;;;;;;;36.55;43.76;101117.56;5045579;28;20454;-71
2022/04/21 11:19:29;;;;;;;20.60;10.67;;;;;;;36.78;43.60;101140.22;5052507;28;20461;-73
2022/04/21 11:21:56;;;;;;;18.80;11.43;;;;;;;36.48;43.45;101141.44;5051217;28;20403;-73
2022/04/21 11:24:23;;;;;;;15.00;10.10;;;;;;;36.80;43.07;101139.94;5051176;28;20413;-72
2022/04/21 11:26:57;;;;;;;18.00;9.27;;;;;;;37.03;42.71;101136.38;5051833;28;20421;-71
2022/04/21 11:29:23;;;;;;;17.67;9.60;;;;;;;37.14;42.70;101131.63;5028800;28;20461;-71
2022/04/21 11:31:59;;;;;;;14.90;9.60;;;;;;;37.27;42.16;101132.78;5054092;28;21020;-73
2022/04/21 11:34:26;;;;;;;14.03;8.40;;;;;;;37.23;42.16;101129.06;5057060;28;20555;-71
2022/04/21 11:36:54;;;;;;;17.30;8.53;;;;;;;37.06;42.35;101116.84;5060369;28;20536;-73
2022/04/21 11:39:20;;;;;;;18.13;12.00;;;;;;;36.80;42.91;101102.09;5039518;28;20458;-71
2022/04/21 11:41:52;;;;;;;18.47;11.63;;;;;;;36.99;43.59;101096.69;5056730;28;20421;-71
2022/04/21 11:44:27;;;;;;;16.13;10.00;;;;;;;37.13;42.70;101102.97;5051500;28;20524;-71
2022/04/21 11:46:54;;;;;;;17.67;9.90;;;;;;;37.18;43.24;101100.19;5059522;28;20528;-72
2022/04/21 11:49:20;;;;;;;28.30;13.37;;;;;;;36.74;44.19;101084.34;5065902;28;20470;-71
2022/04/21 11:51:56;;;;;;;20.63;12.43;;;;;;;36.74;43.67;101062.72;5067671;28;20425;-71
2022/04/21 11:54:22;;;;;;;13.70;8.67;;;;;;;36.70;44.60;101056.28;5056621;28;20459;-72
2022/04/21 11:56:51;;;;;;;14.83;12.60;;;;;;;36.55;44.08;101038.41;5051517;28;20454;-72
2022/04/21 11:59:17;;;;;;;16.90;8.83;;;;;;;36.41;43.81;101035.63;5053424;28;20448;-70
2022/04/21 12:07:17;;;;;;;16.17;12.83;;;;;;;36.89;42.97;101043.56;5055458;28;20479;-72
2022/04/21 12:09:46;;;;;;;13.20;7.77;;;;;;;36.68;43.34;101036.84;5053934;28;20406;-72
2022/04/21 12:12:13;;;;;;;18.60;9.97;;;;;;;36.81;43.21;101036.09;5059588;28;20418;-71
2022/04/21 12:14:43;;;;;;;12.77;8.43;;;;;;;37.15;42.61;101030.47;5061958;28;20410;-71
2022/04/21 12:17:10;;;;;;;19.43;8.00;;;;;;;36.79;43.28;101028.31;5058869;28;20461;-71